sensor_id;sensor_type;location;lat;lon;timestamp;P1;durP1;ratioP1;P2;durP2;ratioP2
60370;SDS011;48550;40.588;49.684;2022-08-21T00:02:14;57.83;;;7.57;;
60370;SDS011;48550;40.588;49.684;2022-08-21T00:07:07;63.72;;;7.50;;
60370;SDS011;48550;40.588;49.684;2022-08-21T00:09:33;61.38;;;6.95;;
60370;SDS011;48550;40.588;49.684;2022-08-21T00:11:58;53.28;;;6.13;;
60370;SDS011;48550;40.588;49.684;2022-08-21T00:14:24;71.70;;;8.45;;
60370;SDS011;48550;40.588;49.684;2022-08-21T00:16:50;58.63;;;7.75;;
60370;SDS011;48550;40.588;49.684;2022-08-21T00:19:16;60.53;;;7.22;;
60370;SDS011;48550;40.588;49.684;2022-08-21T00:21:42;68.05;;;7.72;;
60370;SDS011;48550;40.588;49.684;2022-08-21T00:24:07;58.80;;;6.35;;
60370;SDS011;48550;40.588;49.684;2022-08-21T00:26:34;61.20;;;7.88;;
60370;SDS011;48550;40.588;49.684;2022-08-21T00:28:59;53.95;;;7.40;;
60370;SDS011;48550;40.588;49.684;2022-08-21T00:31:25;51.35;;;7.78;;
60370;SDS011;48550;40.588;49.684;2022-08-21T00:33:51;68.65;;;6.53;;
60370;SDS011;48550;40.588;49.684;2022-08-21T00:36:16;75.97;;;8.30;;
60370;SDS011;48550;40.588;49.684;2022-08-21T00:38:42;60.08;;;6.22;;
60370;SDS011;48550;40.588;49.684;2022-08-21T00:41:09;68.18;;;8.15;;
60370;SDS011;48550;40.588;49.684;2022-08-21T00:43:36;72.50;;;6.90;;
60370;SDS011;48550;40.588;49.684;2022-08-21T00:46:03;60.88;;;7.15;;
60370;SDS011;48550;40.588;49.684;2022-08-21T00:48:30;53.75;;;6.90;;
60370;SDS011;48550;40.588;49.684;2022-08-21T00:51:11;61.35;;;7.85;;
60370;SDS011;48550;40.588;49.684;2022-08-21T00:53:42;53.67;;;5.53;;
60370;SDS011;48550;40.588;49.684;2022-08-21T00:56:10;53.75;;;6.43;;
60370;SDS011;48550;40.588;49.684;2022-08-21T00:58:39;75.82;;;7.28;;
60370;SDS011;48550;40.588;49.684;2022-08-21T01:01:06;78.22;;;8.55;;
60370;SDS011;48550;40.588;49.684;2022-08-21T01:03:33;54.63;;;6.95;;
60370;SDS011;48550;40.588;49.684;2022-08-21T01:06:00;57.55;;;8.00;;
60370;SDS011;48550;40.588;49.684;2022-08-21T01:08:26;52.90;;;5.97;;
60370;SDS011;48550;40.588;49.684;2022-08-21T01:10:54;71.50;;;6.47;;
60370;SDS011;48550;40.588;49.684;2022-08-21T01:13:21;60.55;;;6.63;;
60370;SDS011;48550;40.588;49.684;2022-08-21T01:15:50;65.80;;;7.47;;
60370;SDS011;48550;40.588;49.684;2022-08-21T01:18:18;49.20;;;7.10;;
60370;SDS011;48550;40.588;49.684;2022-08-21T01:21:19;57.10;;;6.57;;
60370;SDS011;48550;40.588;49.684;2022-08-21T01:23:50;57.88;;;7.05;;
60370;SDS011;48550;40.588;49.684;2022-08-21T01:26:22;59.22;;;6.50;;
60370;SDS011;48550;40.588;49.684;2022-08-21T01:31:48;71.38;;;7.88;;
60370;SDS011;48550;40.588;49.684;2022-08-21T01:34:15;64.65;;;7.57;;
60370;SDS011;48550;40.588;49.684;2022-08-21T01:36:43;66.28;;;7.47;;
60370;SDS011;48550;40.588;49.684;2022-08-21T01:39:10;57.58;;;8.45;;
60370;SDS011;48550;40.588;49.684;2022-08-21T01:41:36;65.25;;;9.52;;
60370;SDS011;48550;40.588;49.684;2022-08-21T01:44:02;66.20;;;8.07;;
60370;SDS011;48550;40.588;49.684;2022-08-21T01:46:28;63.55;;;6.78;;
60370;SDS011;48550;40.588;49.684;2022-08-21T01:48:54;58.65;;;6.75;;
60370;SDS011;48550;40.588;49.684;2022-08-21T01:51:20;69.20;;;6.68;;
60370;SDS011;48550;40.588;49.684;2022-08-21T01:53:45;64.20;;;7.10;;
60370;SDS011;48550;40.588;49.684;2022-08-21T01:56:14;73.93;;;8.32;;
60370;SDS011;48550;40.588;49.684;2022-08-21T01:58:41;53.88;;;7.07;;
60370;SDS011;48550;40.588;49.684;2022-08-21T02:01:09;60.80;;;7.28;;
60370;SDS011;48550;40.588;49.684;2022-08-21T02:03:35;47.70;;;6.95;;
60370;SDS011;48550;40.588;49.684;2022-08-21T02:06:05;57.67;;;6.35;;
60370;SDS011;48550;40.588;49.684;2022-08-21T02:08:32;48.97;;;6.65;;
60370;SDS011;48550;40.588;49.684;2022-08-21T02:10:58;61.42;;;8.07;;
60370;SDS011;48550;40.588;49.684;2022-08-21T02:13:25;58.95;;;6.75;;
60370;SDS011;48550;40.588;49.684;2022-08-21T02:15:51;44.33;;;6.03;;
60370;SDS011;48550;40.588;49.684;2022-08-21T02:18:17;51.67;;;6.00;;
60370;SDS011;48550;40.588;49.684;2022-08-21T02:20:44;57.58;;;6.03;;
60370;SDS011;48550;40.588;49.684;2022-08-21T02:23:12;71.40;;;6.95;;
60370;SDS011;48550;40.588;49.684;2022-08-21T02:25:38;47.05;;;6.47;;
60370;SDS011;48550;40.588;49.684;2022-08-21T02:28:05;52.45;;;7.03;;
60370;SDS011;48550;40.588;49.684;2022-08-21T02:30:35;53.28;;;7.10;;
60370;SDS011;48550;40.588;49.684;2022-08-21T02:33:04;75.05;;;7.18;;
60370;SDS011;48550;40.588;49.684;2022-08-21T02:35:30;71.07;;;7.70;;
60370;SDS011;48550;40.588;49.684;2022-08-21T02:37:57;59.97;;;7.05;;
60370;SDS011;48550;40.588;49.684;2022-08-21T02:40:33;52.65;;;6.57;;
60370;SDS011;48550;40.588;49.684;2022-08-21T02:43:02;53.10;;;6.38;;
60370;SDS011;48550;40.588;49.684;2022-08-21T02:45:29;57.92;;;6.13;;
60370;SDS011;48550;40.588;49.684;2022-08-21T02:47:56;72.88;;;7.90;;
60370;SDS011;48550;40.588;49.684;2022-08-21T02:50:30;58.25;;;6.60;;
60370;SDS011;48550;40.588;49.684;2022-08-21T02:53:04;52.17;;;6.32;;
60370;SDS011;48550;40.588;49.684;2022-08-21T02:55:32;61.03;;;6.50;;
60370;SDS011;48550;40.588;49.684;2022-08-21T02:57:58;58.13;;;6.20;;
60370;SDS011;48550;40.588;49.684;2022-08-21T03:00:25;57.15;;;6.57;;
60370;SDS011;48550;40.588;49.684;2022-08-21T03:02:53;52.17;;;7.25;;
60370;SDS011;48550;40.588;49.684;2022-08-21T03:05:20;57.67;;;5.85;;
60370;SDS011;48550;40.588;49.684;2022-08-21T03:07:46;57.08;;;6.18;;
60370;SDS011;48550;40.588;49.684;2022-08-21T03:10:13;58.78;;;6.68;;
60370;SDS011;48550;40.588;49.684;2022-08-21T03:12:40;45.92;;;6.63;;
60370;SDS011;48550;40.588;49.684;2022-08-21T03:15:07;51.75;;;6.38;;
60370;SDS011;48550;40.588;49.684;2022-08-21T03:17:34;47.47;;;6.28;;
60370;SDS011;48550;40.588;49.684;2022-08-21T03:20:00;47.85;;;7.55;;
60370;SDS011;48550;40.588;49.684;2022-08-21T03:22:27;52.63;;;6.72;;
60370;SDS011;48550;40.588;49.684;2022-08-21T03:24:53;58.10;;;5.60;;
60370;SDS011;48550;40.588;49.684;2022-08-21T03:27:19;43.28;;;5.57;;
60370;SDS011;48550;40.588;49.684;2022-08-21T03:29:45;43.97;;;5.75;;
60370;SDS011;48550;40.588;49.684;2022-08-21T03:32:11;50.58;;;6.13;;
60370;SDS011;48550;40.588;49.684;2022-08-21T03:34:37;46.53;;;5.78;;
60370;SDS011;48550;40.588;49.684;2022-08-21T03:37:04;50.35;;;6.13;;
60370;SDS011;48550;40.588;49.684;2022-08-21T03:39:32;51.22;;;6.05;;
60370;SDS011;48550;40.588;49.684;2022-08-21T03:41:58;51.45;;;7.18;;
60370;SDS011;48550;40.588;49.684;2022-08-21T03:44:25;51.03;;;6.30;;
60370;SDS011;48550;40.588;49.684;2022-08-21T03:46:54;39.40;;;5.47;;
60370;SDS011;48550;40.588;49.684;2022-08-21T03:49:20;43.50;;;6.05;;
60370;SDS011;48550;40.588;49.684;2022-08-21T03:51:46;49.35;;;5.95;;
60370;SDS011;48550;40.588;49.684;2022-08-21T03:54:12;29.13;;;4.35;;
60370;SDS011;48550;40.588;49.684;2022-08-21T03:56:37;39.95;;;6.28;;
60370;SDS011;48550;40.588;49.684;2022-08-21T03:59:04;46.08;;;5.28;;
60370;SDS011;48550;40.588;49.684;2022-08-21T04:01:30;47.33;;;6.18;;
60370;SDS011;48550;40.588;49.684;2022-08-21T04:03:56;42.80;;;6.07;;
60370;SDS011;48550;40.588;49.684;2022-08-21T04:06:22;37.75;;;4.97;;
60370;SDS011;48550;40.588;49.684;2022-08-21T04:08:48;39.72;;;5.68;;
60370;SDS011;48550;40.588;49.684;2022-08-21T04:11:14;41.13;;;4.68;;
60370;SDS011;48550;40.588;49.684;2022-08-21T04:13:40;38.13;;;4.85;;
60370;SDS011;48550;40.588;49.684;2022-08-21T04:16:06;46.10;;;5.15;;
60370;SDS011;48550;40.588;49.684;2022-08-21T04:18:32;27.15;;;4.43;;
60370;SDS011;48550;40.588;49.684;2022-08-21T04:20:59;37.25;;;4.78;;
60370;SDS011;48550;40.588;49.684;2022-08-21T04:23:26;30.17;;;4.43;;
60370;SDS011;48550;40.588;49.684;2022-08-21T04:25:53;39.40;;;4.95;;
60370;SDS011;48550;40.588;49.684;2022-08-21T04:28:21;28.10;;;4.00;;
60370;SDS011;48550;40.588;49.684;2022-08-21T04:30:49;34.58;;;3.95;;
60370;SDS011;48550;40.588;49.684;2022-08-21T04:33:17;23.77;;;4.22;;
60370;SDS011;48550;40.588;49.684;2022-08-21T04:35:43;33.75;;;4.55;;
60370;SDS011;48550;40.588;49.684;2022-08-21T04:38:09;25.95;;;3.72;;
60370;SDS011;48550;40.588;49.684;2022-08-21T04:40:35;26.48;;;4.88;;
60370;SDS011;48550;40.588;49.684;2022-08-21T04:43:02;19.27;;;4.07;;
60370;SDS011;48550;40.588;49.684;2022-08-21T04:45:31;30.35;;;4.35;;
60370;SDS011;48550;40.588;49.684;2022-08-21T04:48:00;37.22;;;4.68;;
60370;SDS011;48550;40.588;49.684;2022-08-21T04:50:29;24.30;;;3.92;;
60370;SDS011;48550;40.588;49.684;2022-08-21T04:53:50;21.48;;;3.92;;
60370;SDS011;48550;40.588;49.684;2022-08-21T04:56:15;28.15;;;3.78;;
60370;SDS011;48550;40.588;49.684;2022-08-21T04:58:48;25.40;;;3.97;;
60370;SDS011;48550;40.588;49.684;2022-08-21T05:01:16;26.23;;;4.07;;
60370;SDS011;48550;40.588;49.684;2022-08-21T05:03:45;23.77;;;3.55;;
60370;SDS011;48550;40.588;49.684;2022-08-21T05:06:14;20.42;;;2.88;;
60370;SDS011;48550;40.588;49.684;2022-08-21T05:08:42;21.80;;;3.55;;
60370;SDS011;48550;40.588;49.684;2022-08-21T05:11:10;26.02;;;4.07;;
60370;SDS011;48550;40.588;49.684;2022-08-21T05:13:36;13.82;;;2.90;;
60370;SDS011;48550;40.588;49.684;2022-08-21T05:16:02;18.45;;;3.33;;
60370;SDS011;48550;40.588;49.684;2022-08-21T05:18:28;26.27;;;4.35;;
60370;SDS011;48550;40.588;49.684;2022-08-21T05:20:54;23.20;;;3.70;;
60370;SDS011;48550;40.588;49.684;2022-08-21T05:23:20;16.63;;;3.75;;
60370;SDS011;48550;40.588;49.684;2022-08-21T05:25:45;21.45;;;2.92;;
60370;SDS011;48550;40.588;49.684;2022-08-21T05:28:11;23.33;;;3.40;;
60370;SDS011;48550;40.588;49.684;2022-08-21T05:30:38;23.27;;;3.72;;
60370;SDS011;48550;40.588;49.684;2022-08-21T05:33:05;11.07;;;2.42;;
60370;SDS011;48550;40.588;49.684;2022-08-21T05:35:32;20.40;;;3.05;;
60370;SDS011;48550;40.588;49.684;2022-08-21T05:37:59;18.80;;;3.08;;
60370;SDS011;48550;40.588;49.684;2022-08-21T05:40:26;20.50;;;2.90;;
60370;SDS011;48550;40.588;49.684;2022-08-21T05:42:52;15.68;;;2.92;;
60370;SDS011;48550;40.588;49.684;2022-08-21T05:45:19;18.40;;;3.50;;
60370;SDS011;48550;40.588;49.684;2022-08-21T05:47:46;20.17;;;2.75;;
60370;SDS011;48550;40.588;49.684;2022-08-21T05:50:12;19.95;;;3.60;;
60370;SDS011;48550;40.588;49.684;2022-08-21T05:52:38;13.13;;;3.40;;
60370;SDS011;48550;40.588;49.684;2022-08-21T05:55:03;22.77;;;3.05;;
60370;SDS011;48550;40.588;49.684;2022-08-21T05:57:30;16.13;;;3.05;;
60370;SDS011;48550;40.588;49.684;2022-08-21T05:59:55;19.90;;;2.95;;
60370;SDS011;48550;40.588;49.684;2022-08-21T06:02:21;18.75;;;2.63;;
60370;SDS011;48550;40.588;49.684;2022-08-21T06:04:47;19.42;;;2.88;;
60370;SDS011;48550;40.588;49.684;2022-08-21T06:07:13;14.45;;;2.92;;
60370;SDS011;48550;40.588;49.684;2022-08-21T06:09:40;21.15;;;3.03;;
60370;SDS011;48550;40.588;49.684;2022-08-21T06:12:08;23.35;;;3.13;;
60370;SDS011;48550;40.588;49.684;2022-08-21T06:14:36;17.38;;;2.97;;
60370;SDS011;48550;40.588;49.684;2022-08-21T06:17:05;15.38;;;2.55;;
60370;SDS011;48550;40.588;49.684;2022-08-21T06:19:32;18.60;;;2.80;;
60370;SDS011;48550;40.588;49.684;2022-08-21T06:21:58;17.35;;;2.70;;
60370;SDS011;48550;40.588;49.684;2022-08-21T06:24:24;24.90;;;3.97;;
60370;SDS011;48550;40.588;49.684;2022-08-21T06:26:50;20.10;;;3.10;;
60370;SDS011;48550;40.588;49.684;2022-08-21T06:29:16;26.52;;;3.38;;
60370;SDS011;48550;40.588;49.684;2022-08-21T06:31:43;13.90;;;2.75;;
60370;SDS011;48550;40.588;49.684;2022-08-21T06:34:09;16.33;;;3.28;;
60370;SDS011;48550;40.588;49.684;2022-08-21T06:36:36;27.95;;;3.05;;
60370;SDS011;48550;40.588;49.684;2022-08-21T06:39:02;19.42;;;2.92;;
60370;SDS011;48550;40.588;49.684;2022-08-21T06:41:28;25.80;;;3.08;;
60370;SDS011;48550;40.588;49.684;2022-08-21T06:43:55;15.70;;;3.08;;
60370;SDS011;48550;40.588;49.684;2022-08-21T06:46:21;10.85;;;2.20;;
60370;SDS011;48550;40.588;49.684;2022-08-21T06:48:47;19.08;;;2.65;;
60370;SDS011;48550;40.588;49.684;2022-08-21T06:51:13;23.73;;;3.63;;
60370;SDS011;48550;40.588;49.684;2022-08-21T06:53:39;15.35;;;3.33;;
60370;SDS011;48550;40.588;49.684;2022-08-21T06:56:04;33.90;;;6.03;;
60370;SDS011;48550;40.588;49.684;2022-08-21T06:58:30;17.27;;;3.72;;
60370;SDS011;48550;40.588;49.684;2022-08-21T07:00:56;16.20;;;4.78;;
60370;SDS011;48550;40.588;49.684;2022-08-21T07:03:24;19.13;;;2.70;;
60370;SDS011;48550;40.588;49.684;2022-08-21T07:06:00;17.98;;;2.85;;
60370;SDS011;48550;40.588;49.684;2022-08-21T07:08:27;24.35;;;2.80;;
60370;SDS011;48550;40.588;49.684;2022-08-21T07:10:55;19.02;;;3.47;;
60370;SDS011;48550;40.588;49.684;2022-08-21T07:13:22;17.50;;;2.45;;
60370;SDS011;48550;40.588;49.684;2022-08-21T07:15:48;21.02;;;3.10;;
60370;SDS011;48550;40.588;49.684;2022-08-21T07:18:14;16.13;;;2.60;;
60370;SDS011;48550;40.588;49.684;2022-08-21T07:20:41;27.67;;;4.60;;
60370;SDS011;48550;40.588;49.684;2022-08-21T07:23:08;15.30;;;2.53;;
60370;SDS011;48550;40.588;49.684;2022-08-21T07:25:46;21.40;;;4.10;;
60370;SDS011;48550;40.588;49.684;2022-08-21T07:28:12;13.13;;;2.50;;
60370;SDS011;48550;40.588;49.684;2022-08-21T07:30:38;19.15;;;2.67;;
60370;SDS011;48550;40.588;49.684;2022-08-21T07:33:03;25.77;;;3.35;;
60370;SDS011;48550;40.588;49.684;2022-08-21T07:35:29;22.63;;;3.33;;
60370;SDS011;48550;40.588;49.684;2022-08-21T07:37:56;21.85;;;3.60;;
60370;SDS011;48550;40.588;49.684;2022-08-21T07:40:22;13.68;;;2.30;;
60370;SDS011;48550;40.588;49.684;2022-08-21T07:42:48;23.30;;;3.53;;
60370;SDS011;48550;40.588;49.684;2022-08-21T07:45:17;21.67;;;2.47;;
60370;SDS011;48550;40.588;49.684;2022-08-21T07:47:47;14.85;;;2.50;;
60370;SDS011;48550;40.588;49.684;2022-08-21T07:50:13;18.00;;;3.42;;
60370;SDS011;48550;40.588;49.684;2022-08-21T07:52:40;17.17;;;2.38;;
60370;SDS011;48550;40.588;49.684;2022-08-21T07:55:12;15.65;;;2.53;;
60370;SDS011;48550;40.588;49.684;2022-08-21T07:57:40;18.35;;;2.95;;
60370;SDS011;48550;40.588;49.684;2022-08-21T08:00:07;13.65;;;3.83;;
60370;SDS011;48550;40.588;49.684;2022-08-21T08:02:35;13.95;;;2.38;;
60370;SDS011;48550;40.588;49.684;2022-08-21T08:05:02;10.43;;;2.20;;
60370;SDS011;48550;40.588;49.684;2022-08-21T08:07:30;18.02;;;2.92;;
60370;SDS011;48550;40.588;49.684;2022-08-21T08:09:55;16.83;;;2.30;;
60370;SDS011;48550;40.588;49.684;2022-08-21T08:12:21;15.82;;;2.75;;
60370;SDS011;48550;40.588;49.684;2022-08-21T08:14:47;19.42;;;3.03;;
60370;SDS011;48550;40.588;49.684;2022-08-21T08:17:13;12.30;;;2.45;;
60370;SDS011;48550;40.588;49.684;2022-08-21T08:19:39;12.63;;;2.20;;
60370;SDS011;48550;40.588;49.684;2022-08-21T08:22:15;14.85;;;3.30;;
60370;SDS011;48550;40.588;49.684;2022-08-21T08:24:44;14.50;;;2.47;;
60370;SDS011;48550;40.588;49.684;2022-08-21T08:27:11;13.27;;;2.17;;
60370;SDS011;48550;40.588;49.684;2022-08-21T08:29:38;11.18;;;2.65;;
60370;SDS011;48550;40.588;49.684;2022-08-21T08:32:04;15.20;;;3.85;;
60370;SDS011;48550;40.588;49.684;2022-08-21T08:34:32;19.08;;;3.38;;
60370;SDS011;48550;40.588;49.684;2022-08-21T08:36:58;13.00;;;2.40;;
60370;SDS011;48550;40.588;49.684;2022-08-21T08:39:24;9.52;;;2.00;;
60370;SDS011;48550;40.588;49.684;2022-08-21T08:41:53;10.52;;;1.73;;
60370;SDS011;48550;40.588;49.684;2022-08-21T08:44:24;12.57;;;2.55;;
60370;SDS011;48550;40.588;49.684;2022-08-21T08:46:51;13.50;;;2.30;;
60370;SDS011;48550;40.588;49.684;2022-08-21T08:49:29;13.50;;;2.60;;
60370;SDS011;48550;40.588;49.684;2022-08-21T08:52:18;18.73;;;2.40;;
60370;SDS011;48550;40.588;49.684;2022-08-21T08:54:51;14.07;;;2.00;;
60370;SDS011;48550;40.588;49.684;2022-08-21T08:57:39;10.70;;;1.90;;
60370;SDS011;48550;40.588;49.684;2022-08-21T09:00:10;16.00;;;2.30;;
60370;SDS011;48550;40.588;49.684;2022-08-21T09:02:47;19.85;;;2.65;;
60370;SDS011;48550;40.588;49.684;2022-08-21T09:05:29;15.98;;;2.55;;
60370;SDS011;48550;40.588;49.684;2022-08-21T09:11:41;15.18;;;2.05;;
60370;SDS011;48550;40.588;49.684;2022-08-21T09:22:08;9.55;;;2.10;;
60370;SDS011;48550;40.588;49.684;2022-08-21T09:27:39;14.68;;;1.92;;
60370;SDS011;48550;40.588;49.684;2022-08-21T09:30:06;7.95;;;1.63;;
60370;SDS011;48550;40.588;49.684;2022-08-21T09:32:35;13.52;;;1.95;;
60370;SDS011;48550;40.588;49.684;2022-08-21T09:35:10;7.47;;;1.55;;
60370;SDS011;48550;40.588;49.684;2022-08-21T09:38:21;13.20;;;2.58;;
60370;SDS011;48550;40.588;49.684;2022-08-21T09:45:37;10.13;;;2.22;;
60370;SDS011;48550;40.588;49.684;2022-08-21T09:48:15;11.98;;;1.80;;
60370;SDS011;48550;40.588;49.684;2022-08-21T09:50:49;10.68;;;1.92;;
60370;SDS011;48550;40.588;49.684;2022-08-21T09:56:01;15.60;;;2.35;;
60370;SDS011;48550;40.588;49.684;2022-08-21T09:58:49;7.47;;;1.67;;
60370;SDS011;48550;40.588;49.684;2022-08-21T10:01:20;9.73;;;2.30;;
60370;SDS011;48550;40.588;49.684;2022-08-21T10:03:48;15.73;;;1.77;;
60370;SDS011;48550;40.588;49.684;2022-08-21T10:06:27;12.77;;;1.90;;
60370;SDS011;48550;40.588;49.684;2022-08-21T10:09:13;7.45;;;1.55;;
60370;SDS011;48550;40.588;49.684;2022-08-21T10:11:43;4.63;;;1.35;;
60370;SDS011;48550;40.588;49.684;2022-08-21T10:14:54;10.75;;;1.70;;
60370;SDS011;48550;40.588;49.684;2022-08-21T10:20:25;9.02;;;1.90;;
60370;SDS011;48550;40.588;49.684;2022-08-21T10:23:10;8.18;;;1.75;;
60370;SDS011;48550;40.588;49.684;2022-08-21T10:28:35;7.97;;;2.42;;
60370;SDS011;48550;40.588;49.684;2022-08-21T10:31:12;15.23;;;1.70;;
60370;SDS011;48550;40.588;49.684;2022-08-21T10:33:50;8.93;;;1.90;;
60370;SDS011;48550;40.588;49.684;2022-08-21T10:36:35;6.07;;;1.50;;
60370;SDS011;48550;40.588;49.684;2022-08-21T10:39:35;4.97;;;1.30;;
60370;SDS011;48550;40.588;49.684;2022-08-21T10:42:13;6.93;;;1.65;;
60370;SDS011;48550;40.588;49.684;2022-08-21T10:44:54;4.40;;;1.40;;
60370;SDS011;48550;40.588;49.684;2022-08-21T10:55:33;6.93;;;1.88;;
60370;SDS011;48550;40.588;49.684;2022-08-21T10:58:08;3.03;;;1.40;;
60370;SDS011;48550;40.588;49.684;2022-08-21T11:00:47;2.83;;;1.30;;
60370;SDS011;48550;40.588;49.684;2022-08-21T11:06:21;6.38;;;1.48;;
60370;SDS011;48550;40.588;49.684;2022-08-21T11:08:51;4.78;;;1.30;;
60370;SDS011;48550;40.588;49.684;2022-08-21T11:11:29;10.80;;;1.65;;
60370;SDS011;48550;40.588;49.684;2022-08-21T11:14:03;7.10;;;1.52;;
60370;SDS011;48550;40.588;49.684;2022-08-21T11:19:05;2.30;;;1.17;;
60370;SDS011;48550;40.588;49.684;2022-08-21T11:21:42;10.88;;;1.85;;
60370;SDS011;48550;40.588;49.684;2022-08-21T11:24:29;8.30;;;1.70;;
60370;SDS011;48550;40.588;49.684;2022-08-21T11:27:06;4.78;;;1.38;;
60370;SDS011;48550;40.588;49.684;2022-08-21T11:29:44;6.45;;;1.67;;
60370;SDS011;48550;40.588;49.684;2022-08-21T11:40:31;3.63;;;1.17;;
60370;SDS011;48550;40.588;49.684;2022-08-21T11:43:07;6.22;;;1.70;;
60370;SDS011;48550;40.588;49.684;2022-08-21T11:45:45;3.03;;;1.35;;
60370;SDS011;48550;40.588;49.684;2022-08-21T11:48:36;4.63;;;1.73;;
60370;SDS011;48550;40.588;49.684;2022-08-21T11:51:32;7.80;;;1.25;;
60370;SDS011;48550;40.588;49.684;2022-08-21T11:54:25;4.38;;;1.98;;
60370;SDS011;48550;40.588;49.684;2022-08-21T11:57:04;6.40;;;1.90;;
60370;SDS011;48550;40.588;49.684;2022-08-21T11:59:37;3.33;;;1.42;;
60370;SDS011;48550;40.588;49.684;2022-08-21T12:02:31;9.50;;;2.38;;
60370;SDS011;48550;40.588;49.684;2022-08-21T12:05:02;3.33;;;1.33;;
60370;SDS011;48550;40.588;49.684;2022-08-21T12:07:37;6.28;;;1.60;;
60370;SDS011;48550;40.588;49.684;2022-08-21T12:10:09;5.68;;;1.25;;
60370;SDS011;48550;40.588;49.684;2022-08-21T12:12:39;4.78;;;1.73;;
60370;SDS011;48550;40.588;49.684;2022-08-21T12:21:00;4.05;;;1.48;;
60370;SDS011;48550;40.588;49.684;2022-08-21T12:26:30;7.20;;;2.00;;
60370;SDS011;48550;40.588;49.684;2022-08-21T12:29:05;10.93;;;1.70;;
60370;SDS011;48550;40.588;49.684;2022-08-21T12:31:46;5.35;;;1.35;;
60370;SDS011;48550;40.588;49.684;2022-08-21T12:34:15;9.55;;;1.92;;
60370;SDS011;48550;40.588;49.684;2022-08-21T12:36:44;7.10;;;1.88;;
60370;SDS011;48550;40.588;49.684;2022-08-21T12:39:15;5.95;;;2.17;;
60370;SDS011;48550;40.588;49.684;2022-08-21T12:41:58;11.48;;;1.70;;
60370;SDS011;48550;40.588;49.684;2022-08-21T12:44:51;8.50;;;1.67;;
60370;SDS011;48550;40.588;49.684;2022-08-21T12:47:31;4.40;;;1.63;;
60370;SDS011;48550;40.588;49.684;2022-08-21T12:50:03;3.97;;;1.73;;
60370;SDS011;48550;40.588;49.684;2022-08-21T12:53:09;5.03;;;1.67;;
60370;SDS011;48550;40.588;49.684;2022-08-21T12:55:32;5.88;;;1.45;;
60370;SDS011;48550;40.588;49.684;2022-08-21T12:57:59;7.90;;;1.77;;
60370;SDS011;48550;40.588;49.684;2022-08-21T13:00:26;10.57;;;1.73;;
60370;SDS011;48550;40.588;49.684;2022-08-21T13:02:54;8.15;;;2.35;;
60370;SDS011;48550;40.588;49.684;2022-08-21T13:05:27;8.57;;;1.42;;
60370;SDS011;48550;40.588;49.684;2022-08-21T13:07:58;8.35;;;1.63;;
60370;SDS011;48550;40.588;49.684;2022-08-21T13:10:29;6.30;;;1.77;;
60370;SDS011;48550;40.588;49.684;2022-08-21T13:12:58;10.38;;;1.65;;
60370;SDS011;48550;40.588;49.684;2022-08-21T13:15:30;7.13;;;1.45;;
60370;SDS011;48550;40.588;49.684;2022-08-21T13:17:59;5.55;;;1.50;;
60370;SDS011;48550;40.588;49.684;2022-08-21T13:20:34;6.13;;;1.50;;
60370;SDS011;48550;40.588;49.684;2022-08-21T13:23:03;7.18;;;1.55;;
60370;SDS011;48550;40.588;49.684;2022-08-21T13:25:41;6.50;;;1.63;;
60370;SDS011;48550;40.588;49.684;2022-08-21T13:28:07;7.00;;;1.77;;
60370;SDS011;48550;40.588;49.684;2022-08-21T13:30:39;9.30;;;2.00;;
60370;SDS011;48550;40.588;49.684;2022-08-21T13:35:49;8.00;;;2.10;;
60370;SDS011;48550;40.588;49.684;2022-08-21T13:38:23;12.68;;;2.78;;
60370;SDS011;48550;40.588;49.684;2022-08-21T13:40:53;7.05;;;1.70;;
60370;SDS011;48550;40.588;49.684;2022-08-21T13:43:24;9.75;;;2.20;;
60370;SDS011;48550;40.588;49.684;2022-08-21T13:45:56;5.43;;;1.52;;
60370;SDS011;48550;40.588;49.684;2022-08-21T13:48:24;9.27;;;1.77;;
60370;SDS011;48550;40.588;49.684;2022-08-21T13:50:53;9.90;;;2.17;;
60370;SDS011;48550;40.588;49.684;2022-08-21T13:53:22;8.00;;;1.63;;
60370;SDS011;48550;40.588;49.684;2022-08-21T13:55:56;5.13;;;1.52;;
60370;SDS011;48550;40.588;49.684;2022-08-21T13:58:25;4.40;;;1.38;;
60370;SDS011;48550;40.588;49.684;2022-08-21T14:00:53;7.70;;;2.20;;
60370;SDS011;48550;40.588;49.684;2022-08-21T14:06:56;8.18;;;1.65;;
60370;SDS011;48550;40.588;49.684;2022-08-21T14:09:13;3.63;;;1.42;;
60370;SDS011;48550;40.588;49.684;2022-08-21T14:11:52;5.38;;;1.60;;
60370;SDS011;48550;40.588;49.684;2022-08-21T14:14:22;7.32;;;1.38;;
60370;SDS011;48550;40.588;49.684;2022-08-21T14:16:57;8.90;;;2.08;;
60370;SDS011;48550;40.588;49.684;2022-08-21T14:19:35;12.68;;;3.75;;
60370;SDS011;48550;40.588;49.684;2022-08-21T14:25:01;14.63;;;5.07;;
60370;SDS011;48550;40.588;49.684;2022-08-21T14:27:29;9.38;;;2.47;;
60370;SDS011;48550;40.588;49.684;2022-08-21T14:30:31;3.97;;;1.65;;
60370;SDS011;48550;40.588;49.684;2022-08-21T14:32:56;9.98;;;3.50;;
60370;SDS011;48550;40.588;49.684;2022-08-21T14:35:22;10.68;;;1.70;;
60370;SDS011;48550;40.588;49.684;2022-08-21T14:37:49;13.55;;;2.88;;
60370;SDS011;48550;40.588;49.684;2022-08-21T14:40:19;9.68;;;2.45;;
60370;SDS011;48550;40.588;49.684;2022-08-21T14:42:47;8.40;;;1.75;;
60370;SDS011;48550;40.588;49.684;2022-08-21T14:47:42;7.63;;;1.52;;
60370;SDS011;48550;40.588;49.684;2022-08-21T14:50:09;6.68;;;2.05;;
60370;SDS011;48550;40.588;49.684;2022-08-21T14:52:37;9.05;;;1.95;;
60370;SDS011;48550;40.588;49.684;2022-08-21T14:55:04;8.93;;;1.40;;
60370;SDS011;48550;40.588;49.684;2022-08-21T14:57:31;6.97;;;1.85;;
60370;SDS011;48550;40.588;49.684;2022-08-21T14:59:58;7.82;;;2.25;;
60370;SDS011;48550;40.588;49.684;2022-08-21T15:02:25;11.73;;;1.90;;
60370;SDS011;48550;40.588;49.684;2022-08-21T15:04:51;7.03;;;1.83;;
60370;SDS011;48550;40.588;49.684;2022-08-21T15:07:17;6.57;;;1.63;;
60370;SDS011;48550;40.588;49.684;2022-08-21T15:09:43;10.25;;;1.80;;
60370;SDS011;48550;40.588;49.684;2022-08-21T15:12:09;6.95;;;1.90;;
60370;SDS011;48550;40.588;49.684;2022-08-21T15:14:39;12.02;;;2.20;;
60370;SDS011;48550;40.588;49.684;2022-08-21T15:17:06;6.97;;;1.55;;
60370;SDS011;48550;40.588;49.684;2022-08-21T15:19:32;10.25;;;2.13;;
60370;SDS011;48550;40.588;49.684;2022-08-21T15:21:58;8.68;;;1.80;;
60370;SDS011;48550;40.588;49.684;2022-08-21T15:24:24;12.88;;;2.20;;
60370;SDS011;48550;40.588;49.684;2022-08-21T15:26:51;10.15;;;4.20;;
60370;SDS011;48550;40.588;49.684;2022-08-21T15:29:18;9.18;;;2.75;;
60370;SDS011;48550;40.588;49.684;2022-08-21T15:31:51;9.52;;;2.70;;
60370;SDS011;48550;40.588;49.684;2022-08-21T15:34:20;10.10;;;2.30;;
60370;SDS011;48550;40.588;49.684;2022-08-21T15:36:46;7.15;;;1.70;;
60370;SDS011;48550;40.588;49.684;2022-08-21T15:39:12;9.48;;;2.47;;
60370;SDS011;48550;40.588;49.684;2022-08-21T15:41:38;6.47;;;2.00;;
60370;SDS011;48550;40.588;49.684;2022-08-21T15:44:03;9.88;;;2.00;;
60370;SDS011;48550;40.588;49.684;2022-08-21T15:46:29;13.07;;;2.20;;
60370;SDS011;48550;40.588;49.684;2022-08-21T15:48:56;8.25;;;1.80;;
60370;SDS011;48550;40.588;49.684;2022-08-21T15:51:22;10.15;;;2.90;;
60370;SDS011;48550;40.588;49.684;2022-08-21T15:53:48;9.45;;;2.03;;
60370;SDS011;48550;40.588;49.684;2022-08-21T15:56:21;8.98;;;2.22;;
60370;SDS011;48550;40.588;49.684;2022-08-21T15:58:50;11.85;;;3.72;;